Time;durP1;ratioP1;P1;durP2;ratioP2;P2;SDS_P1;SDS_P2;PMS_P1;PMS_P2;Temp;Humidity;BMP_temperature;BMP_pressure;BME280_temperature;BME280_humidity;BME280_pressure;Samples;Min_cycle;Max_cycle;Signal;HPM_P1;HPM_P2
2022/06/30 03:57:04;;;;;;;2.53;2.15;;;22.20;70.40;;;;;;5618337;24;20067;-76
2022/06/30 03:59:30;;;;;;;5.43;3.03;;;22.20;70.40;;;;;;4737765;30;20409;-77
2022/06/30 04:01:56;;;;;;;4.35;2.97;;;22.20;69.80;;;;;;4754030;30;20083;-77
2022/06/30 04:04:22;;;;;;;6.43;2.92;;;22.10;69.60;;;;;;4757990;30;20059;-77
2022/06/30 04:06:47;;;;;;;4.05;3.65;;;22.10;69.30;;;;;;4773177;30;20167;-75
2022/06/30 04:09:16;;;;;;;8.88;3.65;;;22.00;69.10;;;;;;4772926;30;20416;-80
2022/06/30 04:11:42;;;;;;;3.88;3.47;;;22.00;68.80;;;;;;4767146;30;20048;-75
2022/06/30 04:14:07;;;;;;;4.80;3.80;;;22.00;68.70;;;;;;4755086;30;20052;-76
2022/06/30 04:16:33;;;;;;;3.60;3.30;;;22.00;68.90;;;;;;4755076;30;20437;-80
2022/06/30 04:18:59;;;;;;;6.72;3.63;;;21.90;68.90;;;;;;4739657;30;20134;-77
2022/06/30 04:21:24;;;;;;;4.30;3.40;;;21.90;68.80;;;;;;4740476;30;20144;-75
2022/06/30 04:23:50;;;;;;;5.80;3.55;;;21.90;68.80;;;;;;4752487;30;20048;-79
2022/06/30 04:26:16;;;;;;;4.28;3.35;;;21.90;68.80;;;;;;4756837;30;20124;-77
2022/06/30 04:28:42;;;;;;;4.00;3.50;;;21.90;68.80;;;;;;4772755;30;20134;-77
2022/06/30 04:33:51;;;;;;;6.22;3.70;;;21.80;68.80;;;;;;4743275;30;20060;-79
2022/06/30 04:36:17;;;;;;;4.55;3.70;;;21.80;68.60;;;;;;4750842;30;20376;-79
2022/06/30 04:38:43;;;;;;;6.18;3.58;;;21.80;68.70;;;;;;4753295;30;20067;-78
2022/06/30 04:41:24;;;;;;;5.07;3.97;;;21.80;68.60;;;;;;4754828;30;20048;-79
2022/06/30 04:43:54;;;;;;;5.85;3.72;;;21.80;68.60;;;;;;4754452;30;20124;-77
2022/06/30 04:46:21;;;;;;;4.28;3.35;;;21.80;68.60;;;;;;4721610;30;20389;-79
2022/06/30 04:48:48;;;;;;;4.07;3.70;;;21.80;68.50;;;;;;4743414;30;20051;-78
2022/06/30 04:51:14;;;;;;;5.50;3.67;;;21.80;68.50;;;;;;4756420;30;20048;-76
2022/06/30 04:53:40;;;;;;;4.13;3.47;;;21.80;68.50;;;;;;4755285;30;20071;-78
2022/06/30 04:56:07;;;;;;;4.03;3.63;;;21.70;68.40;;;;;;4750164;30;20070;-75
2022/06/30 04:58:33;;;;;;;4.50;3.65;;;21.70;68.60;;;;;;4778372;30;20063;-75
2022/06/30 05:00:59;;;;;;;6.25;3.83;;;21.70;68.50;;;;;;4788432;30;20055;-75
2022/06/30 05:03:24;;;;;;;5.80;3.75;;;21.70;68.60;;;;;;4771597;30;20056;-75
2022/06/30 05:05:50;;;;;;;4.95;3.70;;;21.70;68.60;;;;;;4772327;30;20086;-78
2022/06/30 05:08:16;;;;;;;6.25;3.63;;;21.80;68.60;;;;;;4772322;30;20117;-76
2022/06/30 05:10:42;;;;;;;3.95;3.55;;;21.70;68.70;;;;;;4771883;30;20368;-74
2022/06/30 05:13:07;;;;;;;4.30;3.50;;;21.80;68.80;;;;;;4771728;30;20059;-72
2022/06/30 05:15:34;;;;;;;5.53;3.60;;;21.80;68.80;;;;;;4772250;30;20043;-71
2022/06/30 05:18:00;;;;;;;4.70;3.88;;;21.80;68.90;;;;;;4784818;30;20051;-77
2022/06/30 05:20:26;;;;;;;10.20;3.75;;;21.80;68.80;;;;;;4773404;30;20063;-78
2022/06/30 05:22:52;;;;;;;12.38;4.40;;;21.80;68.80;;;;;;4772012;30;20474;-76
2022/06/30 05:28:03;;;;;;;13.45;4.35;;;21.80;68.80;;;;;;4789482;30;20063;-75
2022/06/30 05:30:28;;;;;;;16.27;4.75;;;21.80;68.80;;;;;;4789578;30;20043;-79
2022/06/30 05:32:57;;;;;;;15.18;4.80;;;21.80;68.80;;;;;;4785449;30;20047;-75
2022/06/30 05:35:23;;;;;;;10.73;4.15;;;21.80;68.80;;;;;;4771765;30;20044;-75
2022/06/30 05:37:49;;;;;;;10.50;4.20;;;21.80;68.80;;;;;;4772688;30;20114;-76
2022/06/30 05:40:15;;;;;;;7.72;3.88;;;21.80;69.00;;;;;;4783528;30;20063;-76
2022/06/30 05:42:41;;;;;;;6.38;4.30;;;21.80;69.00;;;;;;4789490;30;20058;-76
2022/06/30 05:45:07;;;;;;;7.53;4.10;;;21.80;68.90;;;;;;4789913;30;20066;-77
2022/06/30 05:47:33;;;;;;;8.05;3.97;;;21.80;68.90;;;;;;4789501;30;20047;-77
2022/06/30 05:49:59;;;;;;;8.75;4.10;;;21.80;69.20;;;;;;4789522;30;20054;-76
2022/06/30 05:52:25;;;;;;;13.73;4.38;;;21.80;69.30;;;;;;4774147;30;20059;-72
2022/06/30 05:54:51;;;;;;;8.73;4.55;;;21.80;69.50;;;;;;4789307;30;20356;-79
2022/06/30 05:57:16;;;;;;;14.95;4.50;;;21.90;69.70;;;;;;4789520;30;20053;-76
2022/06/30 05:59:42;;;;;;;11.13;4.28;;;21.90;69.70;;;;;;4784943;30;20374;-77
2022/06/30 06:02:08;;;;;;;10.57;5.30;;;21.90;69.60;;;;;;4771877;30;20388;-77
2022/06/30 06:04:34;;;;;;;9.77;5.07;;;21.90;69.20;;;;;;4771901;30;20056;-76
2022/06/30 06:07:02;;;;;;;8.50;5.25;;;21.90;69.30;;;;;;4771604;30;20117;-78
2022/06/30 06:09:29;;;;;;;5.95;4.75;;;21.90;68.70;;;;;;4756882;30;20067;-75
2022/06/30 06:11:55;;;;;;;5.15;4.65;;;21.90;68.50;;;;;;4771546;30;20043;-76
2022/06/30 06:14:21;;;;;;;6.05;4.82;;;21.80;68.70;;;;;;4771641;30;20172;-75
2022/06/30 06:16:47;;;;;;;5.10;4.60;;;21.80;68.70;;;;;;4774799;30;20051;-74
2022/06/30 06:19:13;;;;;;;5.95;4.38;;;21.70;68.90;;;;;;4788432;30;20408;-73
2022/06/30 06:21:40;;;;;;;4.93;4.43;;;21.70;69.10;;;;;;4759124;30;20652;-76
2022/06/30 06:24:06;;;;;;;4.55;4.07;;;21.70;69.30;;;;;;4774593;30;20056;-75
2022/06/30 06:26:31;;;;;;;6.38;4.72;;;21.80;69.40;;;;;;4774932;30;20196;-75
2022/06/30 06:29:06;;;;;;;6.45;4.28;;;21.80;69.30;;;;;;4785142;30;20059;-75
2022/06/30 06:31:34;;;;;;;5.45;4.63;;;21.80;69.30;;;;;;4792368;30;20051;-74
2022/06/30 06:34:01;;;;;;;4.90;4.28;;;21.90;69.60;;;;;;4792316;30;20055;-74
2022/06/30 06:36:27;;;;;;;4.38;3.85;;;21.90;69.50;;;;;;4792146;30;20059;-74
2022/06/30 06:38:53;;;;;;;4.97;3.92;;;22.00;69.50;;;;;;4790350;30;20066;-74
2022/06/30 06:41:22;;;;;;;5.95;4.32;;;21.90;69.50;;;;;;4792179;30;20197;-74
2022/06/30 06:43:49;;;;;;;5.55;3.95;;;22.00;69.50;;;;;;4792371;30;20051;-74
2022/06/30 06:46:15;;;;;;;6.75;5.07;;;22.00;70.20;;;;;;4792066;30;20066;-74
2022/06/30 06:48:41;;;;;;;5.00;4.50;;;22.00;69.50;;;;;;4784314;30;20047;-74
2022/06/30 06:51:07;;;;;;;5.85;4.82;;;22.00;69.50;;;;;;4777429;30;20065;-75
2022/06/30 06:53:33;;;;;;;4.85;4.45;;;22.00;69.50;;;;;;4792435;30;20359;-74
2022/06/30 06:55:59;;;;;;;5.68;5.10;;;22.00;69.60;;;;;;4792733;30;20124;-74
2022/06/30 06:58:24;;;;;;;5.28;4.32;;;22.10;69.60;;;;;;4791777;30;20353;-75
2022/06/30 07:00:52;;;;;;;6.57;4.53;;;22.10;69.60;;;;;;4792077;30;20039;-75
2022/06/30 07:03:18;;;;;;;5.85;4.78;;;22.10;69.70;;;;;;4758529;30;20135;-75
2022/06/30 07:05:44;;;;;;;7.07;5.80;;;22.20;69.70;;;;;;4772978;30;20142;-77
2022/06/30 07:08:10;;;;;;;7.57;6.78;;;22.20;69.80;;;;;;4774026;30;20063;-75
2022/06/30 07:10:35;;;;;;;6.78;5.20;;;22.30;69.50;;;;;;4773603;30;20485;-76
2022/06/30 07:13:01;;;;;;;6.57;5.68;;;22.30;69.40;;;;;;4789906;30;20093;-77
2022/06/30 07:15:27;;;;;;;7.03;5.80;;;22.30;69.90;;;;;;4775920;30;20421;-76
2022/06/30 07:17:53;;;;;;;6.10;5.50;;;22.30;70.00;;;;;;4775191;30;20116;-77
2022/06/30 07:20:19;;;;;;;8.88;6.47;;;22.40;69.70;;;;;;4791642;30;20047;-77
2022/06/30 07:22:44;;;;;;;8.43;5.63;;;22.50;69.50;;;;;;4762217;30;20055;-78
2022/06/30 07:25:10;;;;;;;7.53;5.60;;;22.50;69.50;;;;;;4787505;30;20052;-75
2022/06/30 07:27:36;;;;;;;6.63;5.20;;;22.50;69.70;;;;;;4772823;30;20073;-74
2022/06/30 07:30:03;;;;;;;9.52;5.97;;;22.50;69.80;;;;;;4743164;30;20047;-77
2022/06/30 07:32:29;;;;;;;6.90;5.53;;;22.50;70.70;;;;;;4784229;30;20076;-75
2022/06/30 07:34:55;;;;;;;6.20;5.30;;;22.50;70.30;;;;;;4791560;30;20063;-75
2022/06/30 07:37:21;;;;;;;7.45;5.47;;;22.50;70.50;;;;;;4791101;30;20377;-76
2022/06/30 07:39:46;;;;;;;6.07;5.47;;;22.50;70.60;;;;;;4791312;30;20048;-75
2022/06/30 07:42:12;;;;;;;5.47;4.88;;;22.50;70.60;;;;;;4782415;30;20060;-75
2022/06/30 07:44:38;;;;;;;7.72;5.28;;;22.50;70.70;;;;;;4773209;30;20052;-75
2022/06/30 07:47:04;;;;;;;5.32;4.82;;;22.50;70.70;;;;;;4773072;30;20056;-77
2022/06/30 07:49:30;;;;;;;8.32;4.53;;;22.50;70.50;;;;;;4773142;30;20085;-76
2022/06/30 07:51:56;;;;;;;7.07;4.35;;;22.50;70.60;;;;;;4778608;30;20120;-76
2022/06/30 07:54:22;;;;;;;5.35;3.97;;;22.50;70.70;;;;;;4790756;30;20486;-76
2022/06/30 07:56:47;;;;;;;5.75;4.60;;;22.50;70.80;;;;;;4791056;30;20063;-77
2022/06/30 07:59:13;;;;;;;6.10;4.63;;;22.50;70.80;;;;;;4790736;30;20101;-76
2022/06/30 08:01:39;;;;;;;5.15;4.35;;;22.60;70.80;;;;;;4783680;30;20064;-76
2022/06/30 08:04:05;;;;;;;5.18;4.68;;;22.60;70.80;;;;;;4772309;30;20066;-75
2022/06/30 08:06:30;;;;;;;6.13;4.13;;;22.60;70.80;;;;;;4773012;30;20079;-75
2022/06/30 08:08:57;;;;;;;4.50;4.05;;;22.60;70.80;;;;;;4786927;30;20190;-75
2022/06/30 08:11:23;;;;;;;4.72;3.97;;;22.60;70.90;;;;;;4775936;30;20491;-77
2022/06/30 08:13:49;;;;;;;4.35;3.88;;;22.60;70.90;;;;;;4790289;30;20083;-75
2022/06/30 08:16:15;;;;;;;4.60;3.95;;;22.60;70.90;;;;;;4790840;30;20051;-75
2022/06/30 08:18:44;;;;;;;4.30;3.90;;;22.60;70.90;;;;;;4774474;30;20055;-76
2022/06/30 08:21:10;;;;;;;4.20;3.83;;;22.60;71.00;;;;;;4789054;30;20055;-76
2022/06/30 08:23:48;;;;;;;4.28;3.88;;;22.60;71.00;;;;;;4772778;30;20110;-79
2022/06/30 08:26:18;;;;;;;4.30;3.90;;;22.70;71.00;;;;;;4786644;30;20059;-76
2022/06/30 08:28:44;;;;;;;4.10;3.70;;;22.60;71.00;;;;;;4790525;30;20051;-75
2022/06/30 08:31:10;;;;;;;6.47;3.92;;;22.70;71.10;;;;;;4789573;30;20063;-76
2022/06/30 08:33:35;;;;;;;4.25;3.85;;;22.70;71.10;;;;;;4790281;30;20400;-77
2022/06/30 08:36:01;;;;;;;4.28;3.88;;;22.70;71.10;;;;;;4790218;30;20102;-76
2022/06/30 08:38:28;;;;;;;4.43;4.03;;;22.70;71.10;;;;;;4789899;29;20063;-75
2022/06/30 08:43:38;;;;;;;6.00;3.97;;;22.70;71.10;;;;;;4771786;30;20471;-76
2022/06/30 08:46:07;;;;;;;4.20;3.75;;;22.70;71.10;;;;;;4771948;30;20083;-76
2022/06/30 08:48:34;;;;;;;4.75;4.13;;;22.70;71.10;;;;;;4772172;30;20400;-77
2022/06/30 08:51:04;;;;;;;4.65;3.95;;;22.70;71.10;;;;;;4772281;30;20497;-75
2022/06/30 08:53:37;;;;;;;4.18;3.78;;;22.70;71.20;;;;;;4788105;30;20063;-74
2022/06/30 08:56:05;;;;;;;4.55;3.42;;;22.70;71.10;;;;;;4789929;30;20051;-76
2022/06/30 08:58:31;;;;;;;3.97;3.67;;;22.80;71.10;;;;;;4789543;30;20447;-76
2022/06/30 09:00:58;;;;;;;4.05;3.28;;;22.70;71.10;;;;;;4783714;30;20055;-78
2022/06/30 09:03:23;;;;;;;4.50;4.10;;;22.70;71.20;;;;;;4780869;30;20153;-77
2022/06/30 09:05:50;;;;;;;4.05;3.65;;;22.80;71.20;;;;;;4779334;30;20043;-76
2022/06/30 09:08:18;;;;;;;4.43;4.03;;;22.80;71.20;;;;;;4773763;30;20073;-74
2022/06/30 09:10:52;;;;;;;4.03;3.65;;;22.80;71.20;;;;;;4790562;30;20082;-75
2022/06/30 09:13:19;;;;;;;4.20;3.80;;;22.80;71.20;;;;;;4788512;30;20059;-75
2022/06/30 09:15:45;;;;;;;4.35;3.95;;;22.80;71.20;;;;;;4790185;30;20051;-75
2022/06/30 09:18:26;;;;;;;4.40;4.00;;;22.80;71.20;;;;;;4789816;30;20443;-75
2022/06/30 09:20:52;;;;;;;4.35;3.90;;;22.80;71.10;;;;;;4774092;30;20124;-76
2022/06/30 09:23:29;;;;;;;4.38;4.03;;;22.80;71.10;;;;;;4746332;30;20052;-75
2022/06/30 09:25:57;;;;;;;4.22;3.83;;;22.90;71.10;;;;;;4785778;30;20048;-77
2022/06/30 09:28:43;;;;;;;4.47;3.65;;;22.90;71.10;;;;;;4756371;30;20456;-75
2022/06/30 09:31:10;;;;;;;5.63;4.32;;;22.80;71.00;;;;;;4772644;30;20356;-75
2022/06/30 09:33:38;;;;;;;4.65;3.70;;;22.90;71.10;;;;;;4786818;30;20067;-76
2022/06/30 09:36:23;;;;;;;4.28;3.88;;;22.90;71.10;;;;;;4790005;30;20098;-76
2022/06/30 09:39:19;;;;;;;4.40;3.92;;;22.90;71.00;;;;;;4790315;30;20058;-76
2022/06/30 09:41:47;;;;;;;4.65;4.18;;;22.90;71.00;;;;;;4769702;30;20142;-76
2022/06/30 09:44:15;;;;;;;4.03;3.72;;;22.90;71.00;;;;;;4771560;30;20048;-77
2022/06/30 09:47:04;;;;;;;3.50;3.20;;;22.90;71.10;;;;;;4771815;30;20058;-76
2022/06/30 09:49:40;;;;;;;3.92;3.45;;;22.90;71.00;;;;;;4771765;30;20051;-75
2022/06/30 09:52:16;;;;;;;4.00;3.60;;;23.00;71.10;;;;;;4778833;30;20047;-76
2022/06/30 09:55:03;;;;;;;3.90;3.60;;;22.90;71.10;;;;;;4793573;30;20348;-75
2022/06/30 09:57:31;;;;;;;4.60;4.20;;;23.00;71.10;;;;;;4777554;30;20100;-77
2022/06/30 10:00:09;;;;;;;4.25;3.85;;;23.00;71.10;;;;;;4793315;30;20055;-75
2022/06/30 10:02:47;;;;;;;4.55;4.15;;;23.00;71.00;;;;;;4779964;30;20055;-76
2022/06/30 10:05:15;;;;;;;4.40;4.00;;;23.00;71.10;;;;;;4788687;30;20449;-77
2022/06/30 10:07:42;;;;;;;4.40;4.00;;;23.00;71.20;;;;;;4791481;29;20071;-74
2022/06/30 10:10:10;;;;;;;4.82;4.22;;;23.00;71.10;;;;;;4774697;30;20098;-76
2022/06/30 10:12:37;;;;;;;4.15;3.85;;;23.00;71.20;;;;;;4785546;30;20078;-75
2022/06/30 10:15:04;;;;;;;5.00;4.05;;;23.00;71.10;;;;;;4792728;30;20051;-75
2022/06/30 10:17:33;;;;;;;4.32;3.92;;;23.00;71.20;;;;;;4776967;30;20063;-76
2022/06/30 10:20:01;;;;;;;3.95;3.65;;;23.00;71.10;;;;;;4792948;30;20054;-77
2022/06/30 10:22:30;;;;;;;4.43;4.03;;;23.00;71.10;;;;;;4784525;30;20056;-76
2022/06/30 10:24:57;;;;;;;4.43;4.03;;;23.00;71.10;;;;;;4774518;30;20055;-75
2022/06/30 10:27:26;;;;;;;4.00;3.70;;;23.00;71.10;;;;;;4774489;30;20052;-75
2022/06/30 10:29:57;;;;;;;3.90;3.60;;;23.00;71.10;;;;;;4774315;30;20063;-75
2022/06/30 10:32:53;;;;;;;4.50;4.05;;;23.10;71.10;;;;;;4780808;30;20051;-74
2022/06/30 10:35:41;;;;;;;4.45;4.05;;;23.00;71.10;;;;;;4792312;30;20476;-76
2022/06/30 10:38:21;;;;;;;4.20;3.85;;;23.00;71.10;;;;;;4792381;30;20464;-76
2022/06/30 10:41:12;;;;;;;4.15;3.85;;;23.10;71.10;;;;;;4792197;30;20074;-76
2022/06/30 10:44:05;;;;;;;3.92;3.55;;;23.00;71.00;;;;;;4776503;30;20183;-75
2022/06/30 10:46:52;;;;;;;3.80;3.45;;;23.10;71.10;;;;;;4788255;30;20066;-74
2022/06/30 10:49:20;;;;;;;4.07;3.70;;;23.00;71.10;;;;;;4764575;30;20125;-76
2022/06/30 10:51:46;;;;;;;4.75;4.20;;;23.00;71.10;;;;;;4775564;30;20445;-74
2022/06/30 10:54:30;;;;;;;4.10;3.80;;;23.10;71.10;;;;;;4791552;30;20062;-75
2022/06/30 10:56:58;;;;;;;4.40;4.00;;;23.10;71.10;;;;;;4792319;30;20051;-75
2022/06/30 10:59:42;;;;;;;4.40;4.05;;;23.10;71.10;;;;;;4776040;30;20066;-76
2022/06/30 11:02:10;;;;;;;4.30;4.00;;;23.10;71.10;;;;;;4786213;29;20062;-76
2022/06/30 11:04:37;;;;;;;3.92;3.63;;;23.10;71.10;;;;;;4784240;30;20059;-78
2022/06/30 11:07:23;;;;;;;4.60;4.20;;;23.10;71.70;;;;;;4772522;30;20130;-76
2022/06/30 11:09:52;;;;;;;4.10;3.80;;;23.10;71.00;;;;;;4772924;30;20051;-74
2022/06/30 11:12:43;;;;;;;4.25;3.95;;;23.10;71.10;;;;;;4778484;30;20130;-75
2022/06/30 11:15:10;;;;;;;4.60;4.20;;;23.10;71.10;;;;;;4775191;30;20134;-78
2022/06/30 11:17:39;;;;;;;4.13;3.72;;;23.10;71.10;;;;;;4791219;30;20349;-77
2022/06/30 11:20:13;;;;;;;4.35;3.95;;;23.10;71.10;;;;;;4792057;30;20051;-74
2022/06/30 11:22:40;;;;;;;5.45;4.03;;;23.10;71.10;;;;;;4791311;30;20055;-77
2022/06/30 11:25:08;;;;;;;4.40;3.55;;;23.10;71.10;;;;;;4791247;30;20371;-76
2022/06/30 11:27:37;;;;;;;4.05;3.67;;;23.10;71.10;;;;;;4791346;30;20375;-75
2022/06/30 11:30:14;;;;;;;7.53;4.10;;;23.10;71.10;;;;;;4791475;30;20070;-78
2022/06/30 11:32:40;;;;;;;3.80;3.50;;;23.10;71.00;;;;;;4755536;30;20048;-76
2022/06/30 11:35:06;;;;;;;4.07;3.63;;;23.10;70.90;;;;;;4755477;30;20040;-76
2022/06/30 11:37:36;;;;;;;5.57;3.58;;;23.10;70.90;;;;;;4740370;30;20167;-76
2022/06/30 11:40:15;;;;;;;7.20;3.97;;;23.10;71.40;;;;;;4755834;30;20361;-75
2022/06/30 11:42:41;;;;;;;4.53;3.58;;;23.10;71.10;;;;;;4790557;30;20062;-77
2022/06/30 11:45:25;;;;;;;7.82;4.35;;;23.20;70.90;;;;;;4791230;30;20051;-76
2022/06/30 11:47:57;;;;;;;9.75;3.70;;;23.20;71.00;;;;;;4789377;30;20208;-78
2022/06/30 11:50:26;;;;;;;6.63;3.67;;;23.30;71.40;;;;;;4773077;30;20065;-82
2022/06/30 11:52:53;;;;;;;10.35;4.50;;;23.40;71.70;;;;;;4757278;30;20066;-75
2022/06/30 11:55:23;;;;;;;4.88;3.78;;;23.40;71.70;;;;;;4773114;30;20044;-75
2022/06/30 11:57:49;;;;;;;11.27;4.22;;;23.40;71.70;;;;;;4773308;30;20064;-81
2022/06/30 12:00:18;;;;;;;9.82;5.18;;;23.40;71.70;;;;;;4773040;30;20048;-78
2022/06/30 12:02:45;;;;;;;10.02;4.43;;;23.40;71.20;;;;;;4776318;30;20105;-76
2022/06/30 12:05:13;;;;;;;5.47;3.70;;;23.50;71.20;;;;;;4772917;30;20044;-76
2022/06/30 12:07:40;;;;;;;4.70;3.42;;;23.50;71.10;;;;;;4772973;30;20036;-75
2022/06/30 12:10:08;;;;;;;6.72;3.08;;;23.50;71.00;;;;;;4787026;30;20051;-76
2022/06/30 12:12:37;;;;;;;5.53;4.43;;;23.50;71.10;;;;;;4786360;29;20460;-76
2022/06/30 12:15:06;;;;;;;10.75;5.35;;;23.50;70.80;;;;;;4772809;30;20101;-78
2022/06/30 12:17:35;;;;;;;6.28;5.32;;;23.50;69.90;;;;;;4757366;30;20063;-77
2022/06/30 12:20:06;;;;;;;6.82;6.22;;;23.40;69.10;;;;;;4773021;30;20047;-79
2022/06/30 12:22:32;;;;;;;13.52;8.70;;;23.40;68.40;;;;;;4783997;30;20079;-74
2022/06/30 12:24:58;;;;;;;10.55;7.28;;;23.40;67.60;;;;;;4790017;30;20053;-74
2022/06/30 12:27:58;;;;;;;8.70;6.40;;;23.30;67.60;;;;;;4790647;30;20051;-74
2022/06/30 12:30:31;;;;;;;6.22;5.20;;;23.40;68.20;;;;;;4774615;30;20059;-75
2022/06/30 12:32:59;;;;;;;6.22;5.05;;;23.50;67.90;;;;;;4775491;30;20480;-75
2022/06/30 12:35:32;;;;;;;6.85;4.72;;;23.50;68.10;;;;;;4772352;30;20122;-74
2022/06/30 12:38:11;;;;;;;5.90;4.03;;;23.50;68.20;;;;;;4772758;30;20078;-74
2022/06/30 12:40:38;;;;;;;6.75;4.05;;;23.50;68.30;;;;;;4772740;30;20052;-74
2022/06/30 12:43:10;;;;;;;4.70;3.55;;;23.50;68.40;;;;;;4786303;30;20565;-75
2022/06/30 12:45:51;;;;;;;4.45;3.30;;;23.50;68.40;;;;;;4789640;30;20051;-73
2022/06/30 12:48:48;;;;;;;6.70;3.10;;;23.50;68.30;;;;;;4790264;30;20086;-75
2022/06/30 12:51:32;;;;;;;7.55;3.33;;;23.50;68.40;;;;;;4788355;30;20059;-75
2022/06/30 12:54:12;;;;;;;5.18;2.60;;;23.50;68.50;;;;;;4772074;30;20067;-75
2022/06/30 12:56:40;;;;;;;5.50;2.70;;;23.50;68.40;;;;;;4772522;30;20051;-74
2022/06/30 12:59:10;;;;;;;5.28;3.03;;;23.50;68.30;;;;;;4771940;30;20066;-75
2022/06/30 13:01:37;;;;;;;5.70;3.42;;;23.50;68.20;;;;;;4775803;30;20135;-74
2022/06/30 13:04:22;;;;;;;3.83;2.17;;;23.60;68.20;;;;;;4789954;30;20141;-75
2022/06/30 13:06:50;;;;;;;4.75;3.03;;;23.50;68.10;;;;;;4789463;30;20059;-74
2022/06/30 13:09:19;;;;;;;3.58;2.80;;;23.50;68.20;;;;;;4788863;30;20120;-74
2022/06/30 13:12:00;;;;;;;3.50;2.45;;;23.50;68.20;;;;;;4783275;30;20360;-75
2022/06/30 13:14:29;;;;;;;3.20;2.42;;;23.50;68.20;;;;;;4789458;30;20475;-75
2022/06/30 13:16:55;;;;;;;2.83;2.53;;;23.50;68.20;;;;;;4773087;30;20067;-74
2022/06/30 13:19:20;;;;;;;4.25;2.45;;;23.50;68.30;;;;;;4789867;30;20090;-75
2022/06/30 13:21:48;;;;;;;2.95;1.88;;;23.60;68.30;;;;;;4784831;30;20090;-75
2022/06/30 13:24:14;;;;;;;3.85;2.05;;;23.60;68.30;;;;;;4786154;29;20150;-75
2022/06/30 13:26:40;;;;;;;5.72;2.10;;;23.50;68.30;;;;;;4775312;30;20337;-75
2022/06/30 13:29:07;;;;;;;3.97;2.45;;;23.50;68.30;;;;;;4775621;30;20139;-75
2022/06/30 13:31:33;;;;;;;3.60;2.03;;;23.50;68.30;;;;;;4777796;30;20058;-75
2022/06/30 13:34:06;;;;;;;2.03;1.88;;;23.50;68.40;;;;;;4793336;30;20073;-74
2022/06/30 13:36:32;;;;;;;2.77;2.03;;;23.50;68.40;;;;;;4793710;30;20055;-75
2022/06/30 13:38:59;;;;;;;3.45;2.30;;;23.60;68.40;;;;;;4793436;30;20666;-74
2022/06/30 13:41:26;;;;;;;5.25;2.00;;;23.50;68.30;;;;;;4791812;30;20082;-75
2022/06/30 13:43:51;;;;;;;4.07;2.13;;;23.60;68.30;;;;;;4775319;30;20073;-74
2022/06/30 13:46:18;;;;;;;2.63;2.10;;;23.60;68.30;;;;;;4774924;30;20119;-75
2022/06/30 13:48:45;;;;;;;3.83;2.00;;;23.60;68.80;;;;;;4775182;30;20139;-77
2022/06/30 13:51:16;;;;;;;2.25;1.77;;;23.60;68.10;;;;;;4780383;30;20452;-77
2022/06/30 13:53:43;;;;;;;3.55;2.00;;;23.60;68.20;;;;;;4792348;30;20063;-75
2022/06/30 13:56:09;;;;;;;3.90;2.40;;;23.60;68.30;;;;;;4788227;30;20536;-75
2022/06/30 13:58:35;;;;;;;4.45;1.70;;;23.60;68.30;;;;;;4779190;30;20056;-74
2022/06/30 14:01:01;;;;;;;3.20;1.80;;;23.60;68.00;;;;;;4775950;30;20063;-74
2022/06/30 14:03:26;;;;;;;2.45;1.80;;;23.60;67.60;;;;;;4792318;30;20059;-74
2022/06/30 14:05:52;;;;;;;2.72;1.52;;;23.60;67.80;;;;;;4792968;30;20047;-74
2022/06/30 14:08:18;;;;;;;2.50;1.48;;;23.60;67.80;;;;;;4793031;30;20047;-74
2022/06/30 14:10:44;;;;;;;3.33;1.58;;;23.60;67.40;;;;;;4776830;30;20059;-74
2022/06/30 14:13:10;;;;;;;3.50;1.58;;;23.60;67.10;;;;;;4775495;30;20064;-75
2022/06/30 14:15:36;;;;;;;3.20;1.60;;;23.60;67.00;;;;;;4774798;30;20055;-74
2022/06/30 14:18:02;;;;;;;2.72;1.55;;;23.60;67.20;;;;;;4759591;30;20418;-74
2022/06/30 14:20:28;;;;;;;3.15;1.45;;;23.60;67.30;;;;;;4774794;30;20055;-74
2022/06/30 14:22:54;;;;;;;2.78;1.50;;;23.60;67.30;;;;;;4789323;30;20062;-74
2022/06/30 14:25:21;;;;;;;2.97;1.30;;;23.60;67.50;;;;;;4791649;30;20047;-75
2022/06/30 14:27:47;;;;;;;3.28;1.33;;;23.60;67.30;;;;;;4792348;30;20106;-75
2022/06/30 14:30:13;;;;;;;3.85;1.15;;;23.60;67.10;;;;;;4791446;30;20429;-75
2022/06/30 14:32:40;;;;;;;1.45;1.30;;;23.60;66.70;;;;;;4790525;30;20425;-74
2022/06/30 14:35:09;;;;;;;2.92;1.00;;;23.60;66.90;;;;;;4792246;30;20052;-73
2022/06/30 14:37:35;;;;;;;3.15;1.05;;;23.60;66.50;;;;;;4775854;30;20382;-75
2022/06/30 14:40:01;;;;;;;2.47;1.13;;;23.60;66.40;;;;;;4792121;30;20047;-75
2022/06/30 14:42:44;;;;;;;3.08;1.20;;;23.60;66.70;;;;;;4765446;30;20138;-74
2022/06/30 14:45:14;;;;;;;;;;;23.60;66.80;;;;;;4773998;30;20117;-75
2022/06/30 14:47:43;;;;;;;2.72;1.30;;;23.60;66.90;;;;;;4774326;30;20270;-75
2022/06/30 14:50:10;;;;;;;2.45;1.45;;;23.60;67.20;;;;;;4758243;30;20088;-74
2022/06/30 14:52:40;;;;;;;1.88;1.25;;;23.60;67.20;;;;;;4775158;30;20047;-75
2022/06/30 14:55:06;;;;;;;3.63;1.10;;;23.60;66.90;;;;;;4774637;30;20060;-74
2022/06/30 14:57:32;;;;;;;1.92;1.40;;;23.60;66.90;;;;;;4774328;30;20048;-74
2022/06/30 14:59:59;;;;;;;3.03;1.52;;;23.60;67.40;;;;;;4773128;30;20091;-74
2022/06/30 15:02:25;;;;;;;1.88;1.35;;;23.60;67.10;;;;;;4781585;30;20712;-74
2022/06/30 15:04:51;;;;;;;1.45;0.80;;;23.60;67.20;;;;;;4791338;30;20051;-75
2022/06/30 15:07:17;;;;;;;2.92;1.27;;;23.60;66.90;;;;;;4791556;30;20116;-75
2022/06/30 15:09:43;;;;;;;1.48;1.05;;;23.60;66.80;;;;;;4792400;30;20425;-74
2022/06/30 15:12:09;;;;;;;3.00;1.45;;;23.60;67.30;;;;;;4784069;30;20419;-74
2022/06/30 15:14:36;;;;;;;2.38;1.15;;;23.60;67.20;;;;;;4773263;30;20056;-74
2022/06/30 15:17:02;;;;;;;2.10;1.10;;;23.60;67.10;;;;;;4773758;30;20052;-76
2022/06/30 15:19:28;;;;;;;2.55;1.00;;;23.60;67.10;;;;;;4774103;30;20058;-76
2022/06/30 15:24:40;;;;;;;3.40;1.52;;;23.60;67.40;;;;;;4790563;30;20091;-75
2022/06/30 15:27:06;;;;;;;3.03;1.35;;;23.60;67.60;;;;;;4791190;30;20057;-75
2022/06/30 15:29:34;;;;;;;2.85;1.30;;;23.60;67.60;;;;;;4775458;30;20055;-76
2022/06/30 15:32:02;;;;;;;2.05;1.20;;;23.60;67.80;;;;;;4769592;30;20079;-76
2022/06/30 15:34:28;;;;;;;3.20;1.27;;;23.60;67.80;;;;;;4757576;30;20059;-75
2022/06/30 15:36:54;;;;;;;2.20;1.25;;;23.60;68.00;;;;;;4773385;30;20138;-75
2022/06/30 15:39:21;;;;;;;5.38;1.75;;;23.60;68.20;;;;;;4773012;30;20130;-75
2022/06/30 15:41:47;;;;;;;3.28;1.23;;;23.60;68.00;;;;;;4777359;30;20058;-75
2022/06/30 15:44:13;;;;;;;3.45;1.65;;;23.60;67.90;;;;;;4791953;30;20074;-75
2022/06/30 15:46:40;;;;;;;2.42;1.35;;;23.60;67.80;;;;;;4792003;30;20059;-75
2022/06/30 15:49:09;;;;;;;3.63;1.38;;;23.60;67.80;;;;;;4790468;29;20062;-75
2022/06/30 15:51:35;;;;;;;2.55;1.65;;;23.60;67.70;;;;;;4772744;30;20500;-75
2022/06/30 15:54:01;;;;;;;3.00;1.20;;;23.60;67.70;;;;;;4788033;30;20094;-76
2022/06/30 15:56:27;;;;;;;2.63;1.30;;;23.60;67.60;;;;;;4772811;30;20097;-74
2022/06/30 15:58:53;;;;;;;1.90;1.10;;;23.60;67.20;;;;;;4771466;30;20485;-76
2022/06/30 16:01:20;;;;;;;3.55;1.10;;;23.60;66.90;;;;;;4776425;30;20136;-76
2022/06/30 16:03:46;;;;;;;3.42;1.70;;;23.60;66.60;;;;;;4791188;30;20066;-75
2022/06/30 16:06:13;;;;;;;2.38;1.30;;;23.60;66.40;;;;;;4791364;30;20062;-75
2022/06/30 16:08:39;;;;;;;3.45;1.40;;;23.60;66.10;;;;;;4791116;30;20062;-75
2022/06/30 16:11:06;;;;;;;1.98;1.13;;;23.60;66.30;;;;;;4789769;30;20152;-75
2022/06/30 16:13:33;;;;;;;2.30;1.35;;;23.60;66.30;;;;;;4790186;30;20051;-75
2022/06/30 16:16:00;;;;;;;2.08;1.20;;;23.60;66.20;;;;;;4790573;30;20051;-75
2022/06/30 16:18:27;;;;;;;2.65;1.45;;;23.60;66.30;;;;;;4791282;30;20058;-74
2022/06/30 16:20:53;;;;;;;5.00;1.60;;;23.60;66.10;;;;;;4789588;30;20051;-74
2022/06/30 16:23:19;;;;;;;3.30;1.23;;;23.60;66.10;;;;;;4757677;30;20052;-75
2022/06/30 16:25:45;;;;;;;1.95;1.20;;;23.60;66.30;;;;;;4772164;30;20113;-74
2022/06/30 16:28:12;;;;;;;2.47;1.30;;;23.60;66.40;;;;;;4772916;30;20155;-74
2022/06/30 16:30:39;;;;;;;3.85;1.38;;;23.60;66.50;;;;;;4772316;30;20051;-74
2022/06/30 16:33:05;;;;;;;3.65;1.20;;;23.60;66.40;;;;;;4787492;30;20054;-75
2022/06/30 16:35:31;;;;;;;3.55;1.42;;;23.60;66.20;;;;;;4790436;30;20062;-75
2022/06/30 16:37:58;;;;;;;3.70;1.40;;;23.60;66.20;;;;;;4790148;30;20055;-75
2022/06/30 16:40:24;;;;;;;4.82;1.92;;;23.60;66.30;;;;;;4790170;30;20047;-79
2022/06/30 16:42:50;;;;;;;3.38;1.45;;;23.50;65.70;;;;;;4776607;30;20047;-78
2022/06/30 16:45:16;;;;;;;4.55;1.70;;;23.50;66.00;;;;;;4772422;30;20070;-77
2022/06/30 16:47:43;;;;;;;5.38;1.85;;;23.40;66.00;;;;;;4772227;30;20051;-78
2022/06/30 16:50:16;;;;;;;4.50;1.70;;;23.40;66.40;;;;;;4756772;30;20063;-78
2022/06/30 16:52:42;;;;;;;2.53;1.10;;;23.40;66.80;;;;;;4784294;30;20357;-78
2022/06/30 16:55:09;;;;;;;5.50;1.25;;;23.40;67.00;;;;;;4789552;30;20086;-78
2022/06/30 16:57:34;;;;;;;4.30;1.08;;;23.40;67.00;;;;;;4774502;30;20123;-79
2022/06/30 17:00:03;;;;;;;3.15;1.40;;;23.50;67.10;;;;;;4790038;30;20051;-78